Time;durP1;ratioP1;P1;durP2;ratioP2;P2;SDS_P1;SDS_P2;PMS_P1;PMS_P2;Temp;Humidity;BMP_temperature;BMP_pressure;BME280_temperature;BME280_humidity;BME280_pressure;Samples;Min_cycle;Max_cycle;Signal;HPM_P1;HPM_P2
2023/01/01 00:01:12;;;;;;;13.38;4.90;;;;;;;13.17;79.16;99005.60;1778680;81;21035;-40
2023/01/01 00:03:39;;;;;;;8.25;5.75;;;;;;;13.14;79.35;98999.20;1778641;80;21469;-40
2023/01/01 00:06:09;;;;;;;10.78;8.33;;;;;;;13.14;79.37;98989.13;1778977;81;21000;-39
2023/01/01 00:08:36;;;;;;;21.65;10.82;;;;;;;13.07;79.47;98997.95;1778745;80;21007;-40
2023/01/01 00:11:03;;;;;;;20.25;11.22;;;;;;;13.00;79.61;98994.88;1778953;80;21492;-39
2023/01/01 00:13:30;;;;;;;17.62;9.73;;;;;;;12.92;79.67;98994.59;1778659;80;21007;-39
2023/01/01 00:15:55;;;;;;;17.02;9.73;;;;;;;12.85;79.87;98984.09;1778622;81;20995;-40
2023/01/01 00:18:21;;;;;;;16.20;9.43;;;;;;;12.78;80.05;98986.79;1778775;80;20964;-39
2023/01/01 00:20:47;;;;;;;15.08;7.83;;;;;;;12.72;80.31;98983.27;1778700;80;21010;-40
2023/01/01 00:23:13;;;;;;;13.15;7.97;;;;;;;12.67;80.39;98993.64;1778708;80;21019;-40
2023/01/01 00:25:39;;;;;;;13.70;6.78;;;;;;;12.66;80.49;98995.92;1777393;80;21576;-40
2023/01/01 00:28:06;;;;;;;11.55;6.05;;;;;;;12.62;80.63;98987.83;1771708;81;20985;-40
2023/01/01 00:30:32;;;;;;;10.80;5.77;;;;;;;12.59;80.65;98989.38;1771992;81;20996;-41
2023/01/01 00:32:58;;;;;;;9.60;5.10;;;;;;;12.61;80.66;98992.75;1771820;81;21145;-40
2023/01/01 00:35:26;;;;;;;7.05;4.75;;;;;;;12.59;80.65;98988.55;1771704;81;21035;-40
2023/01/01 00:37:52;;;;;;;7.62;5.12;;;;;;;12.58;80.61;98995.59;1771750;81;21473;-40
2023/01/01 00:40:18;;;;;;;8.07;5.30;;;;;;;12.62;80.50;98994.42;1772104;81;21038;-40
2023/01/01 00:42:44;;;;;;;10.03;4.55;;;;;;;12.61;80.46;98995.39;1771644;81;21709;-40
2023/01/01 00:45:10;;;;;;;9.05;5.25;;;;;;;12.61;80.46;98995.39;1771594;81;20964;-40
2023/01/01 00:47:36;;;;;;;8.95;5.03;;;;;;;12.61;80.33;98999.34;1771707;80;21000;-41
2023/01/01 00:50:03;;;;;;;11.55;5.30;;;;;;;12.62;80.35;99001.02;1771726;80;21532;-40
2023/01/01 00:52:28;;;;;;;9.63;4.73;;;;;;;12.61;80.00;99002.47;1771926;81;20980;-40
2023/01/01 00:54:54;;;;;;;9.90;4.62;;;;;;;12.62;80.28;99008.93;1771742;81;20991;-40
2023/01/01 00:57:20;;;;;;;7.92;4.92;;;;;;;12.57;80.09;99007.11;1771705;81;20992;-40
2023/01/01 00:59:46;;;;;;;7.83;4.90;;;;;;;12.55;80.09;99009.01;1770684;81;21528;-40
2023/01/01 01:02:12;;;;;;;8.55;5.03;;;;;;;12.53;80.07;99016.16;1770569;80;21563;-40
2023/01/01 01:04:38;;;;;;;11.68;5.90;;;;;;;12.52;80.14;99019.76;1770532;81;21047;-40
2023/01/01 01:07:03;;;;;;;9.23;5.17;;;;;;;12.51;80.25;99027.28;1770536;81;21074;-40
2023/01/01 01:09:29;;;;;;;10.28;5.72;;;;;;;12.47;80.17;99036.36;1770502;81;21031;-40
2023/01/01 01:11:57;;;;;;;11.65;6.08;;;;;;;12.40;80.30;99031.96;1771413;81;20988;-40
2023/01/01 01:14:23;;;;;;;10.98;5.85;;;;;;;12.36;80.32;99038.39;1771637;81;21031;-41
2023/01/01 01:16:48;;;;;;;10.40;5.85;;;;;;;12.31;80.44;99039.66;1771909;81;21023;-40
2023/01/01 01:19:17;;;;;;;12.18;6.35;;;;;;;12.23;80.53;99038.84;1771698;81;21015;-40
2023/01/01 01:21:42;;;;;;;8.20;5.65;;;;;;;12.18;80.55;99041.77;1771435;81;20976;-41
2023/01/01 01:24:09;;;;;;;8.10;5.40;;;;;;;12.15;80.57;99042.00;1771714;81;21043;-40
2023/01/01 01:26:35;;;;;;;7.53;5.28;;;;;;;12.13;80.47;99041.23;1771630;80;21059;-40
2023/01/01 01:29:01;;;;;;;9.08;5.50;;;;;;;12.10;80.51;99038.81;1771556;81;21035;-40
2023/01/01 01:31:30;;;;;;;9.28;5.83;;;;;;;12.07;80.48;99055.66;1771651;81;20987;-41
2023/01/01 01:33:56;;;;;;;8.00;5.30;;;;;;;12.06;80.40;99053.11;1771661;81;21845;-40
2023/01/01 01:36:22;;;;;;;11.53;5.97;;;;;;;12.06;80.31;99051.80;1771993;81;20952;-40
2023/01/01 01:38:48;;;;;;;9.48;5.67;;;;;;;12.02;80.27;99052.95;1771727;80;21104;-40
2023/01/01 01:41:17;;;;;;;9.18;5.47;;;;;;;11.98;80.15;99036.49;1771731;81;21533;-43
2023/01/01 01:44:00;;;;;;;8.65;5.90;;;;;;;11.95;80.17;99041.11;1771587;81;20976;-40
2023/01/01 01:46:37;;;;;;;12.05;5.65;;;;;;;11.97;80.12;99040.54;1771671;81;20956;-40
2023/01/01 01:49:14;;;;;;;8.28;5.15;;;;;;;11.90;80.12;99036.16;1771816;81;20960;-40
2023/01/01 01:51:40;;;;;;;;;;;;;;;11.87;80.05;99030.56;1773069;81;20968;-40
2023/01/01 01:54:11;;;;;;;8.15;5.35;;;;;;;11.85;80.06;99030.30;1771755;81;20933;-40
2023/01/01 01:56:45;;;;;;;10.25;5.65;;;;;;;11.81;80.01;99024.39;1771521;81;20960;-40
2023/01/01 01:59:12;;;;;;;11.65;5.25;;;;;;;11.84;80.15;99026.84;1771557;81;20956;-40
2023/01/01 02:01:38;;;;;;;9.50;6.03;;;;;;;11.81;80.08;99025.70;1771806;81;21023;-40
2023/01/01 02:04:05;;;;;;;8.93;5.28;;;;;;;11.75;79.85;99037.97;1771565;81;20991;-40
2023/01/01 02:06:32;;;;;;;8.47;5.27;;;;;;;11.79;80.04;99030.23;1771855;81;21023;-40
2023/01/01 02:09:00;;;;;;;;;;;;;;;11.77;79.96;99022.91;1774445;81;21485;-40
2023/01/01 02:11:26;;;;;;;10.08;5.45;;;;;;;11.77;79.94;99032.58;1771688;81;20433;-47
2023/01/01 02:13:55;;;;;;;10.75;5.65;;;;;;;11.77;79.86;99032.13;1771845;81;20960;-41
2023/01/01 02:16:35;;;;;;;9.38;5.45;;;;;;;11.78;79.83;99015.84;1771658;81;21447;-40
2023/01/01 02:19:23;;;;;;;7.00;4.90;;;;;;;11.78;79.80;99027.22;1771428;80;20999;-40
2023/01/01 02:22:13;;;;;;;9.15;4.87;;;;;;;11.76;79.60;99034.38;1771264;81;21043;-40
2023/01/01 02:25:29;;;;;;;8.93;5.25;;;;;;;11.81;79.48;99019.13;1771649;81;20988;-40
2023/01/01 02:28:37;;;;;;;7.33;4.60;;;;;;;11.82;79.34;99017.32;1771544;81;21504;-40
2023/01/01 02:31:04;;;;;;;10.55;4.58;;;;;;;11.86;79.19;99035.48;1771626;81;21003;-40
2023/01/01 02:33:31;;;;;;;9.03;5.12;;;;;;;11.88;79.00;99025.69;1771703;81;20988;-40
2023/01/01 02:36:01;;;;;;;6.20;4.53;;;;;;;11.89;78.90;99023.41;1771530;81;20999;-40
2023/01/01 02:38:35;;;;;;;7.67;4.83;;;;;;;11.90;78.73;99035.68;1771636;81;20996;-40
2023/01/01 02:41:05;;;;;;;7.70;4.50;;;;;;;11.92;78.41;99031.63;1746376;80;21217;-38
2023/01/01 02:43:31;;;;;;;7.87;4.60;;;;;;;11.86;78.30;99031.53;1700467;84;21035;-41
2023/01/01 02:45:57;;;;;;;7.35;4.62;;;;;;;11.96;78.60;99040.19;1700877;84;20995;-39
2023/01/01 02:48:47;;;;;;;5.22;4.28;;;;;;;11.97;78.42;99036.59;1700823;84;21642;-41
2023/01/01 02:51:45;;;;;;;5.20;4.22;;;;;;;11.99;78.29;99034.69;1701076;84;20971;-41
2023/01/01 02:54:19;;;;;;;6.80;4.47;;;;;;;11.96;77.86;99026.53;1700373;84;21385;-41
2023/01/01 02:56:53;;;;;;;7.08;4.30;;;;;;;12.01;78.01;99027.56;1700810;84;21042;-41
2023/01/01 03:02:52;;;;;;;7.15;3.85;;;;;;;12.09;77.76;99039.74;1700923;84;21030;-41
2023/01/01 03:09:09;;;;;;;6.35;4.10;;;;;;;12.24;76.87;99049.75;1700925;84;21079;-40
2023/01/01 03:11:49;;;;;;;5.45;4.15;;;;;;;12.35;76.28;99040.68;1700885;84;21043;-39
2023/01/01 03:14:44;;;;;;;4.75;3.70;;;;;;;12.39;76.42;99046.11;1700803;84;20995;-39
2023/01/01 03:17:27;;;;;;;6.22;4.12;;;;;;;12.44;76.45;99045.79;1700846;83;20975;-39
2023/01/01 03:19:55;;;;;;;6.03;3.98;;;;;;;12.47;75.84;99052.19;1700778;84;21792;-39
2023/01/01 03:22:26;;;;;;;5.17;3.85;;;;;;;12.51;75.60;99058.94;1700809;84;21508;-39
2023/01/01 03:25:00;;;;;;;6.17;4.00;;;;;;;12.54;75.65;99053.47;1700732;84;21046;-39
2023/01/01 03:27:31;;;;;;;6.25;3.85;;;;;;;12.59;75.22;99054.00;1698614;84;21003;-39
2023/01/01 03:30:02;;;;;;;5.03;3.50;;;;;;;12.63;74.80;99063.87;1700833;83;20991;-39
2023/01/01 03:35:24;;;;;;;4.53;3.55;;;;;;;12.64;74.27;99057.19;1700867;84;21507;-39
2023/01/01 03:37:53;;;;;;;5.58;3.20;;;;;;;12.66;74.43;99058.38;1700872;84;21002;-38
2023/01/01 03:40:21;;;;;;;4.92;3.62;;;;;;;12.65;74.10;99060.66;1700822;83;21563;-39
2023/01/01 03:42:52;;;;;;;;;;;;;;;12.61;73.78;99053.42;1698181;83;21047;-39
2023/01/01 03:45:28;;;;;;;5.22;3.58;;;;;;;12.61;74.06;99044.19;1693348;85;20135;-39
2023/01/01 03:47:55;;;;;;;6.57;3.73;;;;;;;12.61;74.37;99063.97;1693570;85;21496;-39
2023/01/01 03:50:27;;;;;;;5.62;4.10;;;;;;;12.52;73.47;99058.00;1693511;85;20991;-39
2023/01/01 03:53:16;;;;;;;8.15;4.20;;;;;;;12.57;73.56;99059.86;1693214;85;20991;-39
2023/01/01 03:56:08;;;;;;;7.50;3.72;;;;;;;12.58;74.08;99064.17;1693346;85;20972;-39
2023/01/01 03:58:53;;;;;;;4.85;3.30;;;;;;;12.58;73.87;99064.17;1693314;85;20990;-39
2023/01/01 04:01:32;;;;;;;5.83;3.80;;;;;;;12.61;74.11;99070.57;1693310;85;21430;-39
2023/01/01 04:04:00;;;;;;;6.30;3.95;;;;;;;12.61;73.93;99070.57;1693209;85;21475;-39
2023/01/01 04:06:26;;;;;;;8.70;3.62;;;;;;;12.61;73.61;99063.14;1693398;85;21043;-39
2023/01/01 04:08:56;;;;;;;4.22;3.62;;;;;;;12.62;73.30;99070.92;1693444;85;21010;-39
2023/01/01 04:14:11;;;;;;;4.87;3.77;;;;;;;12.58;73.41;99081.31;1693470;85;21038;-39
2023/01/01 04:16:37;;;;;;;3.62;3.33;;;;;;;12.60;73.47;99083.38;1693511;85;21492;-39
2023/01/01 04:19:05;;;;;;;5.50;3.92;;;;;;;12.61;73.61;99082.44;1693500;85;20995;-39
2023/01/01 04:21:31;;;;;;;6.10;3.70;;;;;;;12.59;73.47;99084.34;1693305;85;21120;-39
2023/01/01 04:23:56;;;;;;;5.25;3.17;;;;;;;12.58;73.37;99076.05;1693516;85;21465;-39
2023/01/01 04:26:22;;;;;;;5.28;3.70;;;;;;;12.60;73.50;99082.05;1693490;85;21468;-40
2023/01/01 04:28:48;;;;;;;4.95;3.60;;;;;;;12.63;73.43;99083.66;1693454;85;21481;-40
2023/01/01 04:31:14;;;;;;;6.60;3.58;;;;;;;12.61;73.67;99075.02;1693432;85;21039;-40
2023/01/01 04:33:40;;;;;;;4.45;3.33;;;;;;;12.61;73.36;99078.97;1693439;85;21050;-40
2023/01/01 04:36:09;;;;;;;5.45;3.37;;;;;;;12.62;73.30;99096.47;1693494;85;21030;-40
2023/01/01 04:38:36;;;;;;;5.08;3.62;;;;;;;12.63;73.15;99090.25;1693421;85;21007;-40
2023/01/01 04:41:03;;;;;;;10.35;3.62;;;;;;;12.65;73.05;99089.20;1693594;84;20999;-40
2023/01/01 04:43:30;;;;;;;5.67;3.75;;;;;;;12.68;72.89;99090.31;1699784;83;21442;-40
2023/01/01 04:46:01;;;;;;;3.58;2.95;;;;;;;12.68;72.22;99086.36;1701034;84;21011;-40
2023/01/01 04:48:31;;;;;;;6.20;3.47;;;;;;;12.72;72.90;99100.67;1700879;84;21003;-40
2023/01/01 04:51:00;;;;;;;8.33;3.40;;;;;;;12.72;72.84;99093.59;1700867;84;21006;-40
2023/01/01 04:53:29;;;;;;;6.87;3.90;;;;;;;12.71;72.48;99093.69;1700902;84;21414;-40
2023/01/01 04:55:55;;;;;;;3.98;2.85;;;;;;;12.72;72.49;99094.91;1701017;84;20987;-40
2023/01/01 04:58:21;;;;;;;9.75;2.98;;;;;;;12.72;72.16;99100.67;1700937;84;21669;-40
2023/01/01 05:00:50;;;;;;;4.35;3.37;;;;;;;12.76;72.12;99099.52;1700966;84;21535;-40
2023/01/01 05:03:17;;;;;;;5.35;3.17;;;;;;;12.71;71.22;99116.95;1700852;84;21511;-40
2023/01/01 05:05:43;;;;;;;4.75;3.37;;;;;;;12.76;71.23;99109.58;1701026;84;21656;-40
2023/01/01 05:08:09;;;;;;;5.25;3.00;;;;;;;12.77;70.93;99111.73;1700844;84;21071;-40
2023/01/01 05:10:34;;;;;;;4.55;3.15;;;;;;;12.82;71.64;99113.59;1700897;84;21051;-40
2023/01/01 05:13:00;;;;;;;3.80;2.80;;;;;;;12.83;71.44;99110.02;1700968;84;21002;-40
2023/01/01 05:15:26;;;;;;;5.58;3.50;;;;;;;12.85;71.37;99111.59;1700885;84;21011;-40
2023/01/01 05:17:53;;;;;;;6.03;3.22;;;;;;;12.86;71.42;99111.98;1701047;84;21007;-40
2023/01/01 05:20:19;;;;;;;;;;;;;;;12.87;71.13;99126.02;1703471;84;21497;-40
2023/01/01 05:22:46;;;;;;;5.95;3.10;;;;;;;12.86;70.33;99125.63;1700810;84;20177;-40
2023/01/01 05:25:13;;;;;;;4.75;3.42;;;;;;;12.85;70.82;99116.87;1701012;83;21050;-40
2023/01/01 05:27:39;;;;;;;4.65;2.72;;;;;;;12.85;70.98;99135.83;1701016;84;21475;-40
2023/01/01 05:30:06;;;;;;;4.37;3.02;;;;;;;12.84;70.78;99120.94;1700870;84;21010;-41
2023/01/01 05:32:32;;;;;;;7.58;3.35;;;;;;;12.83;70.87;99126.69;1700991;84;21547;-40
2023/01/01 05:34:58;;;;;;;4.72;2.83;;;;;;;12.85;70.77;99127.91;1700893;84;21026;-40
2023/01/01 05:37:23;;;;;;;3.67;3.02;;;;;;;12.87;70.38;99127.34;1700847;84;21503;-40
2023/01/01 05:39:49;;;;;;;3.35;2.75;;;;;;;12.88;70.27;99131.67;1700869;84;21077;-40
2023/01/01 05:42:15;;;;;;;4.65;3.37;;;;;;;12.83;69.97;99134.61;1704153;82;21036;-40
2023/01/01 05:44:41;;;;;;;2.87;2.50;;;;;;;12.89;69.87;99146.55;1716557;83;20989;-40
2023/01/01 05:47:07;;;;;;;7.12;3.10;;;;;;;12.90;69.95;99143.42;1716565;83;20981;-40
2023/01/01 05:49:35;;;;;;;4.87;2.80;;;;;;;12.90;69.99;99145.61;1716584;83;21542;-40
2023/01/01 05:52:00;;;;;;;;;;;;;;;12.89;69.92;99167.66;1718951;83;21438;-40
2023/01/01 05:54:25;;;;;;;5.37;2.95;;;;;;;12.86;69.28;99144.10;1716588;83;20153;-40
2023/01/01 05:56:51;;;;;;;5.58;3.70;;;;;;;12.82;69.90;99148.77;1716576;83;21085;-40
2023/01/01 05:59:17;;;;;;;5.75;2.95;;;;;;;12.82;69.90;99148.77;1716558;83;21032;-40
2023/01/01 06:01:43;;;;;;;7.72;3.00;;;;;;;12.84;69.81;99152.60;1716576;83;21533;-40
2023/01/01 06:04:09;;;;;;;7.25;3.00;;;;;;;12.86;69.61;99161.26;1716508;83;21096;-41
2023/01/01 06:06:34;;;;;;;4.97;3.77;;;;;;;12.83;69.72;99158.36;1716506;83;21107;-40
2023/01/01 06:09:03;;;;;;;5.87;3.30;;;;;;;12.81;69.85;99156.30;1716542;83;20997;-40
2023/01/01 06:11:30;;;;;;;4.90;3.12;;;;;;;12.78;69.53;99166.22;1716632;83;21009;-40
2023/01/01 06:13:58;;;;;;;7.78;2.70;;;;;;;12.77;69.65;99158.78;1716740;83;21033;-40
2023/01/01 06:16:26;;;;;;;5.15;3.45;;;;;;;12.72;69.08;99165.31;1716596;83;21001;-40
2023/01/01 06:18:51;;;;;;;;;;;;;;;12.73;69.50;99161.23;1719070;83;21482;-40
2023/01/01 06:21:21;;;;;;;6.70;3.60;;;;;;;12.68;69.01;99174.74;1716552;83;20157;-40
2023/01/01 06:23:48;;;;;;;7.05;3.37;;;;;;;12.67;69.43;99175.67;1716545;83;21052;-40
2023/01/01 06:26:17;;;;;;;6.28;3.17;;;;;;;12.63;69.24;99168.91;1716604;82;21076;-40
2023/01/01 06:28:45;;;;;;;7.58;3.08;;;;;;;12.59;69.44;99170.08;1716510;82;21508;-40
2023/01/01 06:31:15;;;;;;;4.65;3.40;;;;;;;12.56;69.71;99161.03;1716563;83;21028;-40
2023/01/01 06:33:41;;;;;;;5.53;3.27;;;;;;;12.54;69.86;99159.45;1716635;83;21005;-40
2023/01/01 06:36:11;;;;;;;3.52;2.92;;;;;;;12.48;69.90;99165.98;1716520;83;21004;-40
2023/01/01 06:38:40;;;;;;;5.53;3.15;;;;;;;12.46;69.90;99171.34;1716522;83;21521;-40
2023/01/01 06:41:09;;;;;;;3.70;3.02;;;;;;;12.44;69.47;99169.73;1716543;83;21024;-40
2023/01/01 06:43:36;;;;;;;5.97;3.67;;;;;;;12.44;69.73;99181.16;1716497;83;21037;-40
2023/01/01 06:46:30;;;;;;;5.95;3.37;;;;;;;12.41;69.18;99183.14;1716502;83;21351;-40
2023/01/01 06:48:59;;;;;;;5.28;3.40;;;;;;;12.42;69.78;99186.97;1716550;83;21048;-40
2023/01/01 06:51:28;;;;;;;3.62;3.15;;;;;;;12.41;69.53;99191.06;1716518;83;21008;-40
2023/01/01 06:53:59;;;;;;;6.53;3.55;;;;;;;12.37;69.09;99206.23;1716500;83;21474;-40
2023/01/01 06:56:26;;;;;;;9.20;3.77;;;;;;;12.36;69.53;99199.25;1716479;83;21021;-40
2023/01/01 06:58:52;;;;;;;4.95;3.02;;;;;;;12.35;69.52;99198.02;1716767;83;20993;-40
2023/01/01 07:01:25;;;;;;;7.83;3.45;;;;;;;12.32;69.04;99203.52;1716497;83;21009;-40
2023/01/01 07:03:55;;;;;;;6.53;3.50;;;;;;;12.34;69.28;99206.90;1715476;83;21036;-40
2023/01/01 07:06:21;;;;;;;5.37;2.90;;;;;;;12.32;69.07;99206.98;1716467;83;21048;-40
2023/01/01 07:08:48;;;;;;;6.15;3.45;;;;;;;12.36;69.15;99215.55;1716597;83;20996;-40
2023/01/01 07:11:14;;;;;;;7.70;3.20;;;;;;;12.36;69.34;99201.05;1716469;83;21044;-40
2023/01/01 07:13:39;;;;;;;6.58;3.20;;;;;;;12.37;69.31;99209.31;1716522;83;20977;-40
2023/01/01 07:16:06;;;;;;;7.90;3.52;;;;;;;12.36;69.22;99220.34;1716516;83;21037;-40
2023/01/01 07:18:32;;;;;;;4.80;3.37;;;;;;;12.38;69.35;99229.00;1716744;83;21012;-40
2023/01/01 07:21:01;;;;;;;6.28;3.47;;;;;;;12.38;68.93;99225.52;1716503;83;21001;-40
2023/01/01 07:23:29;;;;;;;6.92;3.00;;;;;;;12.40;68.35;99232.86;1716523;83;21474;-40
2023/01/01 07:25:56;;;;;;;4.55;3.27;;;;;;;12.42;68.64;99229.17;1716595;83;21044;-40
2023/01/01 07:28:24;;;;;;;6.97;3.22;;;;;;;12.42;68.66;99231.81;1716498;83;21335;-40
2023/01/01 07:30:51;;;;;;;7.42;3.35;;;;;;;12.45;68.88;99230.78;1716523;83;21036;-40
2023/01/01 07:33:20;;;;;;;4.28;2.95;;;;;;;12.45;68.68;99234.73;1716718;83;21032;-40
2023/01/01 07:35:46;;;;;;;6.08;3.58;;;;;;;12.45;68.54;99236.89;1716547;83;20992;-40
2023/01/01 07:38:13;;;;;;;7.03;2.92;;;;;;;12.46;68.31;99245.20;1716485;83;21467;-40
2023/01/01 07:40:39;;;;;;;8.15;3.22;;;;;;;12.51;68.39;99253.28;1716770;83;20989;-40
2023/01/01 07:43:06;;;;;;;12.18;3.70;;;;;;;12.54;68.52;99251.30;1711536;83;21006;-40
2023/01/01 07:45:33;;;;;;;4.87;3.08;;;;;;;12.57;68.40;99253.75;1700914;84;21022;-40
2023/01/01 07:48:00;;;;;;;4.55;3.05;;;;;;;12.60;68.30;99265.39;1701229;84;20971;-40
2023/01/01 07:50:30;;;;;;;4.15;2.92;;;;;;;12.66;68.15;99265.02;1701066;84;21006;-41
2023/01/01 07:52:56;;;;;;;6.78;3.30;;;;;;;12.65;67.84;99267.75;1700959;84;21053;-40
2023/01/01 07:55:22;;;;;;;5.03;2.83;;;;;;;12.67;67.92;99271.97;1701031;84;21006;-40
2023/01/01 07:57:48;;;;;;;7.92;3.27;;;;;;;12.68;67.70;99268.41;1701087;84;21042;-40
2023/01/01 08:00:18;;;;;;;7.50;2.83;;;;;;;12.71;67.64;99277.91;1700962;84;21523;-40
2023/01/01 08:02:44;;;;;;;5.47;3.37;;;;;;;12.73;66.93;99276.48;1700914;84;21043;-39
2023/01/01 08:05:11;;;;;;;5.37;2.65;;;;;;;12.75;66.80;99279.42;1700857;84;21495;-39
2023/01/01 08:07:37;;;;;;;6.70;3.37;;;;;;;12.81;67.36;99290.05;1701227;84;21006;-39
2023/01/01 08:10:05;;;;;;;4.58;2.77;;;;;;;12.84;67.12;99283.23;1700963;84;21491;-39
2023/01/01 08:12:32;;;;;;;5.22;2.62;;;;;;;12.87;67.07;99283.05;1701009;83;21027;-40
2023/01/01 08:14:57;;;;;;;5.72;2.85;;;;;;;12.91;67.10;99289.81;1700951;84;21007;-40
2023/01/01 08:17:23;;;;;;;2.60;2.25;;;;;;;12.91;66.55;99286.33;1700949;84;21002;-40
2023/01/01 08:19:50;;;;;;;6.78;3.25;;;;;;;12.94;66.76;99279.55;1700912;84;20990;-41
2023/01/01 08:22:16;;;;;;;6.53;2.90;;;;;;;12.95;66.53;99290.45;1701086;84;20991;-40
2023/01/01 08:24:42;;;;;;;6.95;3.00;;;;;;;12.99;67.05;99288.02;1701010;84;20999;-40
2023/01/01 08:27:14;;;;;;;9.55;2.92;;;;;;;13.00;66.74;99279.97;1701001;84;20999;-40
2023/01/01 08:29:41;;;;;;;8.05;3.10;;;;;;;13.01;65.87;99287.44;1700978;84;21516;-40
2023/01/01 08:32:07;;;;;;;10.00;2.95;;;;;;;13.05;66.44;99286.28;1701055;84;20986;-40
2023/01/01 08:34:33;;;;;;;7.08;3.08;;;;;;;13.10;66.42;99285.95;1700927;84;21490;-39
2023/01/01 08:36:59;;;;;;;4.62;3.17;;;;;;;13.10;65.17;99288.59;1700929;84;20999;-40
2023/01/01 08:39:25;;;;;;;6.33;3.27;;;;;;;13.14;65.97;99297.55;1700925;84;20995;-40
2023/01/01 08:41:51;;;;;;;6.22;3.08;;;;;;;13.15;66.00;99304.54;1700932;84;20983;-40
2023/01/01 08:44:18;;;;;;;7.70;2.87;;;;;;;13.17;66.55;99293.40;1700820;82;21066;-40
2023/01/01 08:46:43;;;;;;;4.58;3.45;;;;;;;13.20;66.53;99304.22;1701194;84;21023;-41
2023/01/01 08:49:09;;;;;;;5.62;3.52;;;;;;;13.21;66.26;99308.08;1701018;84;21583;-40
2023/01/01 08:51:35;;;;;;;8.13;3.72;;;;;;;13.21;66.15;99308.56;1700986;84;21532;-40
2023/01/01 08:54:01;;;;;;;6.33;3.17;;;;;;;13.23;66.33;99313.27;1700994;84;21512;-40
2023/01/01 08:56:27;;;;;;;7.10;3.65;;;;;;;13.26;65.91;99317.00;1701121;84;21495;-40
2023/01/01 08:58:52;;;;;;;5.17;3.35;;;;;;;13.33;65.66;99322.29;1700892;84;21011;-40
2023/01/01 09:01:21;;;;;;;6.40;3.30;;;;;;;13.55;66.24;99317.77;1700893;84;20967;-41
2023/01/01 09:03:48;;;;;;;5.58;3.10;;;;;;;13.71;65.52;99325.97;1700935;84;21046;-40
2023/01/01 09:06:14;;;;;;;6.90;3.60;;;;;;;13.85;64.60;99330.33;1679964;84;21460;-39
2023/01/01 09:08:40;;;;;;;6.87;3.65;;;;;;;13.96;64.34;99319.86;1701082;84;20992;-40
2023/01/01 09:11:06;;;;;;;8.50;3.90;;;;;;;13.99;64.55;99323.63;1700919;84;20987;-40
2023/01/01 09:13:33;;;;;;;5.47;3.20;;;;;;;13.99;63.85;99322.30;1700927;84;21023;-39
2023/01/01 09:15:59;;;;;;;10.08;3.58;;;;;;;13.98;63.97;99324.56;1701048;84;21460;-40
2023/01/01 09:18:25;;;;;;;6.90;3.42;;;;;;;14.04;64.66;99326.77;1700916;84;21516;-40
2023/01/01 09:20:50;;;;;;;5.45;3.52;;;;;;;14.05;63.94;99317.06;1700911;83;20986;-39
2023/01/01 09:23:16;;;;;;;8.90;3.40;;;;;;;14.07;64.16;99313.83;1700874;84;21002;-39
2023/01/01 09:25:42;;;;;;;7.53;3.15;;;;;;;14.11;64.29;99317.95;1700899;84;20971;-40
2023/01/01 09:28:11;;;;;;;6.87;3.37;;;;;;;14.10;64.46;99313.59;1700932;83;20987;-39
2023/01/01 09:30:37;;;;;;;7.50;3.50;;;;;;;14.09;63.87;99319.86;1700890;84;20976;-39
2023/01/01 09:33:03;;;;;;;4.03;2.67;;;;;;;14.08;63.93;99320.34;1700950;84;21440;-39
2023/01/01 09:35:30;;;;;;;8.40;3.42;;;;;;;14.06;63.78;99314.77;1700879;84;21006;-39
2023/01/01 09:37:56;;;;;;;4.80;3.10;;;;;;;14.07;64.00;99320.44;1701146;84;21523;-40
2023/01/01 09:40:46;;;;;;;6.35;3.02;;;;;;;14.06;63.40;99318.73;1701131;84;21484;-39
2023/01/01 09:43:26;;;;;;;4.58;3.25;;;;;;;14.03;62.62;99307.91;1700556;83;20995;-40
2023/01/01 09:45:57;;;;;;;4.72;2.87;;;;;;;14.08;63.12;99315.50;1687397;84;20971;-39
2023/01/01 09:48:26;;;;;;;5.87;2.80;;;;;;;14.11;63.50;99310.02;1699901;83;20987;-40
2023/01/01 09:50:52;;;;;;;9.90;3.12;;;;;;;14.14;63.29;99314.61;1700897;84;20987;-40
2023/01/01 09:53:29;;;;;;;6.22;3.22;;;;;;;14.17;63.12;99312.22;1700880;84;21026;-40
2023/01/01 09:56:04;;;;;;;7.40;3.15;;;;;;;14.21;63.57;99315.87;1700903;84;20995;-40
2023/01/01 09:58:36;;;;;;;5.58;3.30;;;;;;;14.27;63.49;99308.47;1700929;84;20995;-39
2023/01/01 10:01:10;;;;;;;5.45;3.00;;;;;;;14.31;63.23;99304.65;1700930;84;21041;-39
2023/01/01 10:03:59;;;;;;;3.27;2.70;;;;;;;14.38;63.41;99304.09;1700717;84;20991;-39
2023/01/01 10:06:32;;;;;;;6.78;2.83;;;;;;;14.41;63.19;99310.99;1700910;84;20987;-44
2023/01/01 10:09:26;;;;;;;7.83;3.15;;;;;;;14.46;63.48;99313.30;1700894;84;20998;-39
2023/01/01 10:12:01;;;;;;;6.03;3.72;;;;;;;14.50;63.34;99313.47;1700894;84;20998;-40
2023/01/01 10:14:43;;;;;;;9.13;2.95;;;;;;;14.54;63.27;99309.64;1700833;84;20982;-40
2023/01/01 10:17:20;;;;;;;3.75;2.50;;;;;;;14.57;63.06;99305.00;1701112;84;21038;-39
2023/01/01 10:19:57;;;;;;;7.50;2.62;;;;;;;14.59;62.49;99303.09;1701000;83;21022;-40
2023/01/01 10:22:28;;;;;;;5.58;3.08;;;;;;;14.65;62.63;99308.91;1700256;84;20963;-39
2023/01/01 10:25:14;;;;;;;4.17;2.72;;;;;;;14.67;62.24;99307.83;1700811;84;21042;-39
2023/01/01 10:28:07;;;;;;;7.00;3.12;;;;;;;14.71;62.44;99306.64;1697005;84;21026;-39
2023/01/01 10:30:32;;;;;;;9.08;2.40;;;;;;;14.76;62.13;99303.67;1695656;84;21002;-40
2023/01/01 10:32:59;;;;;;;6.47;3.05;;;;;;;14.76;61.66;99307.16;1700844;84;21026;-40
2023/01/01 10:35:43;;;;;;;8.60;3.22;;;;;;;14.81;61.75;99302.87;1700851;84;21031;-40
2023/01/01 10:38:17;;;;;;;6.65;2.87;;;;;;;14.85;61.04;99300.36;1680895;84;20990;-39
2023/01/01 10:40:43;;;;;;;6.60;3.77;;;;;;;14.89;61.35;99300.49;1693495;84;20998;-39
2023/01/01 10:43:11;;;;;;;5.15;2.77;;;;;;;14.93;61.69;99301.11;1700450;83;21002;-40
2023/01/01 10:45:44;;;;;;;5.25;3.10;;;;;;;14.93;60.36;99299.79;1693432;85;20987;-39
2023/01/01 10:48:19;;;;;;;7.80;4.12;;;;;;;14.97;60.58;99308.73;1693304;84;21003;-40
2023/01/01 10:51:02;;;;;;;8.25;3.62;;;;;;;14.97;59.61;99302.57;1693289;85;21464;-40
2023/01/01 10:53:44;;;;;;;6.53;3.45;;;;;;;15.01;60.73;99298.77;1692878;85;21030;-39
2023/01/01 10:56:16;;;;;;;5.10;2.95;;;;;;;15.01;60.86;99300.09;1692324;85;21014;-39
2023/01/01 10:58:47;;;;;;;6.70;3.17;;;;;;;15.00;59.99;99298.88;1693333;84;21526;-39
2023/01/01 11:01:21;;;;;;;7.00;3.62;;;;;;;15.06;61.13;99287.81;1693288;85;21116;-40
2023/01/01 11:04:18;;;;;;;5.40;2.87;;;;;;;15.07;60.36;99281.58;1693335;85;21002;-39
2023/01/01 11:06:45;;;;;;;5.95;3.08;;;;;;;15.15;60.17;99285.80;1693472;85;21487;-40
2023/01/01 11:09:27;;;;;;;5.83;3.17;;;;;;;15.20;60.12;99278.36;1693504;85;20991;-39
2023/01/01 11:12:03;;;;;;;7.35;3.10;;;;;;;15.28;59.74;99266.73;1693245;85;20968;-39
2023/01/01 11:14:42;;;;;;;10.63;3.02;;;;;;;15.31;59.46;99274.42;1692559;85;20992;-39
2023/01/01 11:17:09;;;;;;;7.75;3.15;;;;;;;15.35;60.11;99277.69;1693292;85;21047;-39
2023/01/01 11:19:41;;;;;;;4.40;2.70;;;;;;;15.36;59.75;99276.75;1693384;85;20975;-39
2023/01/01 11:22:11;;;;;;;6.53;3.10;;;;;;;15.32;59.60;99282.75;1693261;85;20994;-39
2023/01/01 11:24:37;;;;;;;8.88;3.42;;;;;;;15.32;59.80;99290.70;1667941;85;21087;-39
2023/01/01 11:27:23;;;;;;;5.37;2.75;;;;;;;15.31;58.92;99281.54;1693348;85;21031;-40
2023/01/01 11:29:52;;;;;;;7.15;3.52;;;;;;;15.31;59.32;99281.05;1693382;85;21023;-39
2023/01/01 11:32:29;;;;;;;5.25;3.45;;;;;;;15.31;59.43;99276.24;1693387;84;21003;-40
2023/01/01 11:34:59;;;;;;;10.82;3.45;;;;;;;15.30;59.40;99272.75;1692371;84;21468;-39
2023/01/01 11:37:32;;;;;;;10.38;3.37;;;;;;;15.25;58.93;99268.27;1693187;85;20991;-39
2023/01/01 11:40:01;;;;;;;6.42;3.40;;;;;;;15.28;58.88;99268.05;1692927;84;21474;-39
2023/01/01 11:42:30;;;;;;;9.20;4.00;;;;;;;15.29;59.45;99264.91;1693388;85;20983;-39
2023/01/01 11:45:01;;;;;;;7.53;3.05;;;;;;;15.31;59.46;99273.10;1693099;83;21525;-40
2023/01/01 11:47:37;;;;;;;7.45;3.45;;;;;;;15.35;59.41;99260.01;1693222;85;21042;-40
2023/01/01 11:50:35;;;;;;;14.73;3.83;;;;;;;15.37;58.71;99261.19;1693553;85;21831;-40
2023/01/01 11:53:25;;;;;;;12.40;3.30;;;;;;;15.43;59.18;99259.91;1692965;85;21015;-42
2023/01/01 11:56:08;;;;;;;4.67;3.12;;;;;;;15.50;58.95;99255.84;1693346;85;20979;-39
2023/01/01 11:58:58;;;;;;;9.53;4.15;;;;;;;15.54;58.95;99245.36;1693309;85;21595;-40
2023/01/01 12:01:41;;;;;;;12.53;3.40;;;;;;;15.56;58.31;99264.63;1693385;85;21563;-39